sensor_id;sensor_type;location;lat;lon;timestamp;temperature;humidity
6375;DHT22;35400;45.472;-122.822;2023-08-31T00:01:32;26.10;86.50
6375;DHT22;35400;45.472;-122.822;2023-08-31T00:04:00;26.00;88.00
6375;DHT22;35400;45.472;-122.822;2023-08-31T00:06:26;26.00;87.50
6375;DHT22;35400;45.472;-122.822;2023-08-31T00:08:53;25.90;86.90
6375;DHT22;35400;45.472;-122.822;2023-08-31T00:11:20;25.90;87.50
6375;DHT22;35400;45.472;-122.822;2023-08-31T00:13:47;25.80;87.50
6375;DHT22;35400;45.472;-122.822;2023-08-31T00:16:14;25.80;87.90
6375;DHT22;35400;45.472;-122.822;2023-08-31T00:18:42;25.70;88.20
6375;DHT22;35400;45.472;-122.822;2023-08-31T00:21:11;25.70;87.80
6375;DHT22;35400;45.472;-122.822;2023-08-31T00:23:38;25.70;87.40
6375;DHT22;35400;45.472;-122.822;2023-08-31T00:26:05;25.60;88.00
6375;DHT22;35400;45.472;-122.822;2023-08-31T00:28:33;25.60;88.10
6375;DHT22;35400;45.472;-122.822;2023-08-31T00:31:01;25.50;87.90
6375;DHT22;35400;45.472;-122.822;2023-08-31T00:33:32;25.50;87.90
6375;DHT22;35400;45.472;-122.822;2023-08-31T00:36:00;25.50;87.00
6375;DHT22;35400;45.472;-122.822;2023-08-31T00:38:30;25.40;87.30
6375;DHT22;35400;45.472;-122.822;2023-08-31T00:40:57;25.30;87.90
6375;DHT22;35400;45.472;-122.822;2023-08-31T00:43:24;25.30;88.10
6375;DHT22;35400;45.472;-122.822;2023-08-31T00:45:54;25.20;88.60
6375;DHT22;35400;45.472;-122.822;2023-08-31T00:48:26;25.20;88.70
6375;DHT22;35400;45.472;-122.822;2023-08-31T00:50:53;25.30;88.60
6375;DHT22;35400;45.472;-122.822;2023-08-31T00:53:20;25.30;88.80
6375;DHT22;35400;45.472;-122.822;2023-08-31T00:55:47;25.20;88.60
6375;DHT22;35400;45.472;-122.822;2023-08-31T00:58:15;25.20;88.20
6375;DHT22;35400;45.472;-122.822;2023-08-31T01:08:54;25.20;91.40
6375;DHT22;35400;45.472;-122.822;2023-08-31T01:11:56;25.20;91.80
6375;DHT22;35400;45.472;-122.822;2023-08-31T01:14:27;25.30;91.70
6375;DHT22;35400;45.472;-122.822;2023-08-31T01:16:55;25.20;91.70
6375;DHT22;35400;45.472;-122.822;2023-08-31T01:19:50;25.10;92.10
6375;DHT22;35400;45.472;-122.822;2023-08-31T01:25:03;25.00;92.70
6375;DHT22;35400;45.472;-122.822;2023-08-31T01:27:32;24.90;93.00
6375;DHT22;35400;45.472;-122.822;2023-08-31T01:29:59;24.80;93.10
6375;DHT22;35400;45.472;-122.822;2023-08-31T01:32:26;24.70;93.30
6375;DHT22;35400;45.472;-122.822;2023-08-31T01:34:53;24.60;93.60
6375;DHT22;35400;45.472;-122.822;2023-08-31T01:37:39;24.50;93.80
6375;DHT22;35400;45.472;-122.822;2023-08-31T01:40:30;24.50;93.60
6375;DHT22;35400;45.472;-122.822;2023-08-31T01:43:03;24.40;93.80
6375;DHT22;35400;45.472;-122.822;2023-08-31T01:45:34;24.40;93.90
6375;DHT22;35400;45.472;-122.822;2023-08-31T01:48:01;24.40;94.00
6375;DHT22;35400;45.472;-122.822;2023-08-31T01:50:28;24.30;94.20
6375;DHT22;35400;45.472;-122.822;2023-08-31T01:52:55;24.20;94.30
6375;DHT22;35400;45.472;-122.822;2023-08-31T01:55:26;24.10;94.50
6375;DHT22;35400;45.472;-122.822;2023-08-31T01:57:53;24.00;94.80
6375;DHT22;35400;45.472;-122.822;2023-08-31T02:00:23;23.90;94.80
6375;DHT22;35400;45.472;-122.822;2023-08-31T02:02:49;23.90;95.00
6375;DHT22;35400;45.472;-122.822;2023-08-31T02:05:17;23.80;95.10
6375;DHT22;35400;45.472;-122.822;2023-08-31T02:07:44;23.80;95.20
6375;DHT22;35400;45.472;-122.822;2023-08-31T02:10:10;23.80;95.30
6375;DHT22;35400;45.472;-122.822;2023-08-31T02:12:37;23.80;95.50
6375;DHT22;35400;45.472;-122.822;2023-08-31T02:15:05;23.80;95.60
6375;DHT22;35400;45.472;-122.822;2023-08-31T02:17:34;23.70;95.60
6375;DHT22;35400;45.472;-122.822;2023-08-31T02:20:03;23.60;95.80
6375;DHT22;35400;45.472;-122.822;2023-08-31T02:22:35;23.60;96.00
6375;DHT22;35400;45.472;-122.822;2023-08-31T02:25:02;23.60;96.00
6375;DHT22;35400;45.472;-122.822;2023-08-31T02:27:29;23.60;96.10
6375;DHT22;35400;45.472;-122.822;2023-08-31T02:29:56;23.60;96.10
6375;DHT22;35400;45.472;-122.822;2023-08-31T02:32:23;23.60;96.00
6375;DHT22;35400;45.472;-122.822;2023-08-31T02:34:50;23.50;96.20
6375;DHT22;35400;45.472;-122.822;2023-08-31T02:37:17;23.40;96.20
6375;DHT22;35400;45.472;-122.822;2023-08-31T02:39:44;23.40;96.40
6375;DHT22;35400;45.472;-122.822;2023-08-31T02:42:11;23.30;96.50
6375;DHT22;35400;45.472;-122.822;2023-08-31T02:44:37;23.30;96.60
6375;DHT22;35400;45.472;-122.822;2023-08-31T02:47:04;23.20;96.70
6375;DHT22;35400;45.472;-122.822;2023-08-31T02:49:31;23.20;96.70
6375;DHT22;35400;45.472;-122.822;2023-08-31T02:51:58;23.10;96.80
6375;DHT22;35400;45.472;-122.822;2023-08-31T02:54:25;23.00;97.00
6375;DHT22;35400;45.472;-122.822;2023-08-31T02:56:51;23.00;97.20
6375;DHT22;35400;45.472;-122.822;2023-08-31T02:59:18;22.90;97.20
6375;DHT22;35400;45.472;-122.822;2023-08-31T03:01:45;22.90;97.40
6375;DHT22;35400;45.472;-122.822;2023-08-31T03:04:15;22.80;97.60
6375;DHT22;35400;45.472;-122.822;2023-08-31T03:06:41;22.80;97.70
6375;DHT22;35400;45.472;-122.822;2023-08-31T03:09:08;22.70;98.00
6375;DHT22;35400;45.472;-122.822;2023-08-31T03:11:36;22.70;98.20
6375;DHT22;35400;45.472;-122.822;2023-08-31T03:14:04;22.60;98.30
6375;DHT22;35400;45.472;-122.822;2023-08-31T03:16:31;22.60;98.60
6375;DHT22;35400;45.472;-122.822;2023-08-31T03:18:58;22.60;99.00
6375;DHT22;35400;45.472;-122.822;2023-08-31T03:21:25;22.50;99.10
6375;DHT22;35400;45.472;-122.822;2023-08-31T03:23:51;22.40;99.20
6375;DHT22;35400;45.472;-122.822;2023-08-31T03:26:18;22.40;99.40
6375;DHT22;35400;45.472;-122.822;2023-08-31T03:28:45;22.30;99.70
6375;DHT22;35400;45.472;-122.822;2023-08-31T03:31:12;22.30;99.90
6375;DHT22;35400;45.472;-122.822;2023-08-31T03:33:39;22.30;99.90
6375;DHT22;35400;45.472;-122.822;2023-08-31T03:36:05;22.30;99.90
6375;DHT22;35400;45.472;-122.822;2023-08-31T03:38:34;22.20;99.90
6375;DHT22;35400;45.472;-122.822;2023-08-31T03:41:04;22.10;99.90
6375;DHT22;35400;45.472;-122.822;2023-08-31T03:43:32;22.10;99.90
6375;DHT22;35400;45.472;-122.822;2023-08-31T03:45:59;22.10;99.90
6375;DHT22;35400;45.472;-122.822;2023-08-31T03:48:26;22.00;99.90
6375;DHT22;35400;45.472;-122.822;2023-08-31T03:50:54;21.90;99.90
6375;DHT22;35400;45.472;-122.822;2023-08-31T03:53:22;21.90;99.90
6375;DHT22;35400;45.472;-122.822;2023-08-31T03:55:52;21.80;99.90
6375;DHT22;35400;45.472;-122.822;2023-08-31T03:58:20;21.80;99.90
6375;DHT22;35400;45.472;-122.822;2023-08-31T04:00:51;21.80;99.90
6375;DHT22;35400;45.472;-122.822;2023-08-31T04:03:19;21.70;99.90
6375;DHT22;35400;45.472;-122.822;2023-08-31T04:05:47;21.70;99.90
6375;DHT22;35400;45.472;-122.822;2023-08-31T04:08:14;21.70;99.90
6375;DHT22;35400;45.472;-122.822;2023-08-31T04:10:41;21.60;99.90
6375;DHT22;35400;45.472;-122.822;2023-08-31T04:13:07;21.60;99.90
6375;DHT22;35400;45.472;-122.822;2023-08-31T04:15:34;21.50;99.90
6375;DHT22;35400;45.472;-122.822;2023-08-31T04:18:01;21.40;99.90
6375;DHT22;35400;45.472;-122.822;2023-08-31T04:20:28;21.40;99.90
6375;DHT22;35400;45.472;-122.822;2023-08-31T04:22:55;21.30;99.90
6375;DHT22;35400;45.472;-122.822;2023-08-31T04:25:22;21.30;99.90
6375;DHT22;35400;45.472;-122.822;2023-08-31T04:27:49;21.30;99.90
6375;DHT22;35400;45.472;-122.822;2023-08-31T04:30:16;21.20;99.90
6375;DHT22;35400;45.472;-122.822;2023-08-31T04:32:43;21.10;99.90
6375;DHT22;35400;45.472;-122.822;2023-08-31T04:35:10;21.10;99.90
6375;DHT22;35400;45.472;-122.822;2023-08-31T04:37:37;21.00;99.90
6375;DHT22;35400;45.472;-122.822;2023-08-31T04:40:04;21.00;99.90
6375;DHT22;35400;45.472;-122.822;2023-08-31T04:42:31;20.90;99.90
6375;DHT22;35400;45.472;-122.822;2023-08-31T04:44:58;20.90;99.90
6375;DHT22;35400;45.472;-122.822;2023-08-31T04:47:25;20.80;99.90
6375;DHT22;35400;45.472;-122.822;2023-08-31T04:49:52;20.80;99.90
6375;DHT22;35400;45.472;-122.822;2023-08-31T04:52:18;20.80;99.90
6375;DHT22;35400;45.472;-122.822;2023-08-31T04:54:45;20.70;99.90
6375;DHT22;35400;45.472;-122.822;2023-08-31T04:57:12;20.60;99.90
6375;DHT22;35400;45.472;-122.822;2023-08-31T04:59:38;20.60;99.90
6375;DHT22;35400;45.472;-122.822;2023-08-31T05:02:05;20.50;99.90
6375;DHT22;35400;45.472;-122.822;2023-08-31T05:04:32;20.40;99.90
6375;DHT22;35400;45.472;-122.822;2023-08-31T05:06:59;20.40;99.90
6375;DHT22;35400;45.472;-122.822;2023-08-31T05:09:26;20.40;99.90
6375;DHT22;35400;45.472;-122.822;2023-08-31T05:11:53;20.40;99.90
6375;DHT22;35400;45.472;-122.822;2023-08-31T05:14:19;20.30;99.90
6375;DHT22;35400;45.472;-122.822;2023-08-31T05:16:46;20.20;99.90
6375;DHT22;35400;45.472;-122.822;2023-08-31T05:19:13;20.10;99.90
6375;DHT22;35400;45.472;-122.822;2023-08-31T05:21:40;20.10;99.90
6375;DHT22;35400;45.472;-122.822;2023-08-31T05:24:07;20.00;99.90
6375;DHT22;35400;45.472;-122.822;2023-08-31T05:26:34;19.90;99.90
6375;DHT22;35400;45.472;-122.822;2023-08-31T05:29:01;19.90;99.90
6375;DHT22;35400;45.472;-122.822;2023-08-31T05:31:30;19.90;99.90
6375;DHT22;35400;45.472;-122.822;2023-08-31T05:33:57;19.80;99.90
6375;DHT22;35400;45.472;-122.822;2023-08-31T05:36:25;19.80;99.90
6375;DHT22;35400;45.472;-122.822;2023-08-31T05:38:52;19.70;99.90
6375;DHT22;35400;45.472;-122.822;2023-08-31T05:41:19;19.70;99.90
6375;DHT22;35400;45.472;-122.822;2023-08-31T05:43:47;19.70;99.90
6375;DHT22;35400;45.472;-122.822;2023-08-31T05:46:14;19.70;99.90
6375;DHT22;35400;45.472;-122.822;2023-08-31T05:48:40;19.70;99.90
6375;DHT22;35400;45.472;-122.822;2023-08-31T05:51:07;19.60;99.90
6375;DHT22;35400;45.472;-122.822;2023-08-31T05:53:34;19.60;99.90
6375;DHT22;35400;45.472;-122.822;2023-08-31T05:56:01;19.50;99.90
6375;DHT22;35400;45.472;-122.822;2023-08-31T05:58:34;19.50;99.90
6375;DHT22;35400;45.472;-122.822;2023-08-31T06:01:02;19.40;99.90
6375;DHT22;35400;45.472;-122.822;2023-08-31T06:03:29;19.40;99.90
6375;DHT22;35400;45.472;-122.822;2023-08-31T06:05:57;19.40;99.90
6375;DHT22;35400;45.472;-122.822;2023-08-31T06:08:25;19.40;99.90
6375;DHT22;35400;45.472;-122.822;2023-08-31T06:10:52;19.30;99.90
6375;DHT22;35400;45.472;-122.822;2023-08-31T06:13:19;19.30;99.90
6375;DHT22;35400;45.472;-122.822;2023-08-31T06:15:45;19.30;99.90
6375;DHT22;35400;45.472;-122.822;2023-08-31T06:18:13;19.30;99.90
6375;DHT22;35400;45.472;-122.822;2023-08-31T06:20:40;19.20;99.90
6375;DHT22;35400;45.472;-122.822;2023-08-31T06:23:07;19.20;99.90
6375;DHT22;35400;45.472;-122.822;2023-08-31T06:25:34;19.20;99.90
6375;DHT22;35400;45.472;-122.822;2023-08-31T06:28:00;19.20;99.90
6375;DHT22;35400;45.472;-122.822;2023-08-31T06:30:27;19.20;99.90
6375;DHT22;35400;45.472;-122.822;2023-08-31T06:32:54;19.20;99.90
6375;DHT22;35400;45.472;-122.822;2023-08-31T06:35:21;19.10;99.90
6375;DHT22;35400;45.472;-122.822;2023-08-31T06:37:48;19.10;99.90
6375;DHT22;35400;45.472;-122.822;2023-08-31T06:40:16;19.10;99.90
6375;DHT22;35400;45.472;-122.822;2023-08-31T06:42:43;19.10;99.90
6375;DHT22;35400;45.472;-122.822;2023-08-31T06:45:10;19.00;99.90
6375;DHT22;35400;45.472;-122.822;2023-08-31T06:47:37;19.00;99.90
6375;DHT22;35400;45.472;-122.822;2023-08-31T06:50:04;19.00;99.90
6375;DHT22;35400;45.472;-122.822;2023-08-31T06:52:31;18.90;99.90
6375;DHT22;35400;45.472;-122.822;2023-08-31T06:54:58;18.90;99.90
6375;DHT22;35400;45.472;-122.822;2023-08-31T06:57:26;18.90;99.90
6375;DHT22;35400;45.472;-122.822;2023-08-31T06:59:54;18.80;99.90
6375;DHT22;35400;45.472;-122.822;2023-08-31T07:02:21;18.80;99.90
6375;DHT22;35400;45.472;-122.822;2023-08-31T07:04:50;18.80;99.90
6375;DHT22;35400;45.472;-122.822;2023-08-31T07:07:18;18.80;99.90
6375;DHT22;35400;45.472;-122.822;2023-08-31T07:09:46;18.70;99.90
6375;DHT22;35400;45.472;-122.822;2023-08-31T07:12:14;18.70;99.90
6375;DHT22;35400;45.472;-122.822;2023-08-31T07:14:41;18.60;99.90
6375;DHT22;35400;45.472;-122.822;2023-08-31T07:17:08;18.60;99.90
6375;DHT22;35400;45.472;-122.822;2023-08-31T07:19:38;18.60;99.90
6375;DHT22;35400;45.472;-122.822;2023-08-31T07:22:05;18.50;99.90
6375;DHT22;35400;45.472;-122.822;2023-08-31T07:24:32;18.50;99.90
6375;DHT22;35400;45.472;-122.822;2023-08-31T07:27:05;18.40;99.90
6375;DHT22;35400;45.472;-122.822;2023-08-31T07:29:32;18.40;99.90
6375;DHT22;35400;45.472;-122.822;2023-08-31T07:31:59;18.40;99.90
6375;DHT22;35400;45.472;-122.822;2023-08-31T07:34:26;18.30;99.90
6375;DHT22;35400;45.472;-122.822;2023-08-31T07:36:53;18.30;99.90
6375;DHT22;35400;45.472;-122.822;2023-08-31T07:39:19;18.20;99.90
6375;DHT22;35400;45.472;-122.822;2023-08-31T07:41:46;18.20;99.90
6375;DHT22;35400;45.472;-122.822;2023-08-31T07:44:13;18.20;99.90
6375;DHT22;35400;45.472;-122.822;2023-08-31T07:46:40;18.20;99.90
6375;DHT22;35400;45.472;-122.822;2023-08-31T07:49:06;18.10;99.90
6375;DHT22;35400;45.472;-122.822;2023-08-31T07:51:33;18.10;99.90
6375;DHT22;35400;45.472;-122.822;2023-08-31T07:54:00;18.10;99.90
6375;DHT22;35400;45.472;-122.822;2023-08-31T07:56:29;18.00;99.90
6375;DHT22;35400;45.472;-122.822;2023-08-31T07:58:56;18.00;99.90
6375;DHT22;35400;45.472;-122.822;2023-08-31T08:01:23;18.00;99.90
6375;DHT22;35400;45.472;-122.822;2023-08-31T08:03:50;18.00;99.90
6375;DHT22;35400;45.472;-122.822;2023-08-31T08:06:16;18.00;99.90
6375;DHT22;35400;45.472;-122.822;2023-08-31T08:08:46;18.00;99.90
6375;DHT22;35400;45.472;-122.822;2023-08-31T08:11:13;18.00;99.90
6375;DHT22;35400;45.472;-122.822;2023-08-31T08:13:40;18.00;99.90
6375;DHT22;35400;45.472;-122.822;2023-08-31T08:16:07;17.90;99.90
6375;DHT22;35400;45.472;-122.822;2023-08-31T08:18:35;17.90;99.90
6375;DHT22;35400;45.472;-122.822;2023-08-31T08:21:02;17.90;99.90
6375;DHT22;35400;45.472;-122.822;2023-08-31T08:23:30;17.90;99.90
6375;DHT22;35400;45.472;-122.822;2023-08-31T08:25:56;17.90;99.90
6375;DHT22;35400;45.472;-122.822;2023-08-31T08:28:26;17.90;99.90
6375;DHT22;35400;45.472;-122.822;2023-08-31T08:30:53;17.90;99.90
6375;DHT22;35400;45.472;-122.822;2023-08-31T08:33:19;17.90;99.90
6375;DHT22;35400;45.472;-122.822;2023-08-31T08:35:46;17.90;99.90
6375;DHT22;35400;45.472;-122.822;2023-08-31T08:38:13;17.80;99.90
6375;DHT22;35400;45.472;-122.822;2023-08-31T08:40:40;17.80;99.90
6375;DHT22;35400;45.472;-122.822;2023-08-31T08:43:07;17.80;99.90
6375;DHT22;35400;45.472;-122.822;2023-08-31T08:45:38;17.80;99.90
6375;DHT22;35400;45.472;-122.822;2023-08-31T08:48:08;17.80;99.90
6375;DHT22;35400;45.472;-122.822;2023-08-31T08:50:36;17.80;99.90
6375;DHT22;35400;45.472;-122.822;2023-08-31T08:53:05;17.80;99.90
6375;DHT22;35400;45.472;-122.822;2023-08-31T08:55:33;17.80;99.90
6375;DHT22;35400;45.472;-122.822;2023-08-31T08:58:00;17.80;99.90
6375;DHT22;35400;45.472;-122.822;2023-08-31T09:00:27;17.80;99.90
6375;DHT22;35400;45.472;-122.822;2023-08-31T09:02:55;17.70;99.90
6375;DHT22;35400;45.472;-122.822;2023-08-31T09:05:22;17.70;99.90
6375;DHT22;35400;45.472;-122.822;2023-08-31T09:08:04;17.70;99.90
6375;DHT22;35400;45.472;-122.822;2023-08-31T09:10:42;17.70;99.90
6375;DHT22;35400;45.472;-122.822;2023-08-31T09:13:11;17.70;99.90
6375;DHT22;35400;45.472;-122.822;2023-08-31T09:18:30;17.70;99.90
6375;DHT22;35400;45.472;-122.822;2023-08-31T09:21:01;17.70;99.90
6375;DHT22;35400;45.472;-122.822;2023-08-31T09:23:28;17.70;99.90
6375;DHT22;35400;45.472;-122.822;2023-08-31T09:25:56;17.70;99.90
6375;DHT22;35400;45.472;-122.822;2023-08-31T09:28:24;17.70;99.90
6375;DHT22;35400;45.472;-122.822;2023-08-31T09:31:08;17.70;99.90
6375;DHT22;35400;45.472;-122.822;2023-08-31T09:33:35;17.60;99.90
6375;DHT22;35400;45.472;-122.822;2023-08-31T09:36:03;17.60;99.90
6375;DHT22;35400;45.472;-122.822;2023-08-31T09:38:31;17.60;99.90
6375;DHT22;35400;45.472;-122.822;2023-08-31T09:41:07;17.60;99.90
6375;DHT22;35400;45.472;-122.822;2023-08-31T09:43:34;17.60;99.90
6375;DHT22;35400;45.472;-122.822;2023-08-31T09:46:03;17.60;99.90
6375;DHT22;35400;45.472;-122.822;2023-08-31T09:48:30;17.60;99.90
6375;DHT22;35400;45.472;-122.822;2023-08-31T09:50:57;17.60;99.90
6375;DHT22;35400;45.472;-122.822;2023-08-31T09:53:25;17.60;99.90
6375;DHT22;35400;45.472;-122.822;2023-08-31T09:55:52;17.60;99.90
6375;DHT22;35400;45.472;-122.822;2023-08-31T09:58:21;17.60;99.90
6375;DHT22;35400;45.472;-122.822;2023-08-31T10:00:52;17.60;99.90
6375;DHT22;35400;45.472;-122.822;2023-08-31T10:03:20;17.60;99.90
6375;DHT22;35400;45.472;-122.822;2023-08-31T10:05:49;17.60;99.90
6375;DHT22;35400;45.472;-122.822;2023-08-31T10:08:17;17.60;99.90
6375;DHT22;35400;45.472;-122.822;2023-08-31T10:10:44;17.50;99.90
6375;DHT22;35400;45.472;-122.822;2023-08-31T10:13:12;17.50;99.90
6375;DHT22;35400;45.472;-122.822;2023-08-31T10:15:41;17.50;99.90
6375;DHT22;35400;45.472;-122.822;2023-08-31T10:18:09;17.60;99.90
6375;DHT22;35400;45.472;-122.822;2023-08-31T10:20:36;17.60;99.90
6375;DHT22;35400;45.472;-122.822;2023-08-31T10:23:04;17.60;99.90
6375;DHT22;35400;45.472;-122.822;2023-08-31T10:28:24;17.60;99.90
6375;DHT22;35400;45.472;-122.822;2023-08-31T10:31:08;17.60;99.90
6375;DHT22;35400;45.472;-122.822;2023-08-31T10:33:44;17.60;99.90
6375;DHT22;35400;45.472;-122.822;2023-08-31T10:36:18;17.60;99.90
6375;DHT22;35400;45.472;-122.822;2023-08-31T10:38:46;17.60;99.90
6375;DHT22;35400;45.472;-122.822;2023-08-31T10:43:57;17.60;99.90
6375;DHT22;35400;45.472;-122.822;2023-08-31T10:46:34;17.60;99.90
6375;DHT22;35400;45.472;-122.822;2023-08-31T10:51:39;17.50;99.90
6375;DHT22;35400;45.472;-122.822;2023-08-31T10:54:07;17.50;99.90
6375;DHT22;35400;45.472;-122.822;2023-08-31T10:59:22;17.50;99.90
6375;DHT22;35400;45.472;-122.822;2023-08-31T11:06:48;17.50;99.90
6375;DHT22;35400;45.472;-122.822;2023-08-31T11:09:20;17.50;99.90
6375;DHT22;35400;45.472;-122.822;2023-08-31T11:11:47;17.50;99.90
6375;DHT22;35400;45.472;-122.822;2023-08-31T11:14:17;17.50;99.90
6375;DHT22;35400;45.472;-122.822;2023-08-31T11:16:44;17.50;99.90
6375;DHT22;35400;45.472;-122.822;2023-08-31T11:19:11;17.50;99.90
6375;DHT22;35400;45.472;-122.822;2023-08-31T11:21:38;17.50;99.90
6375;DHT22;35400;45.472;-122.822;2023-08-31T11:24:07;17.50;99.90
6375;DHT22;35400;45.472;-122.822;2023-08-31T11:26:34;17.50;99.90
6375;DHT22;35400;45.472;-122.822;2023-08-31T11:29:05;17.50;99.90
6375;DHT22;35400;45.472;-122.822;2023-08-31T11:31:32;17.50;99.90
6375;DHT22;35400;45.472;-122.822;2023-08-31T11:33:59;17.50;99.90
6375;DHT22;35400;45.472;-122.822;2023-08-31T11:36:25;17.50;99.90
6375;DHT22;35400;45.472;-122.822;2023-08-31T11:38:52;17.40;99.90
6375;DHT22;35400;45.472;-122.822;2023-08-31T11:41:20;17.40;99.90
6375;DHT22;35400;45.472;-122.822;2023-08-31T11:43:47;17.40;99.90
6375;DHT22;35400;45.472;-122.822;2023-08-31T11:46:14;17.40;99.90
6375;DHT22;35400;45.472;-122.822;2023-08-31T11:48:43;17.40;99.90
6375;DHT22;35400;45.472;-122.822;2023-08-31T11:51:11;17.40;99.90
6375;DHT22;35400;45.472;-122.822;2023-08-31T11:53:38;17.40;99.90
6375;DHT22;35400;45.472;-122.822;2023-08-31T11:56:05;17.40;99.90
6375;DHT22;35400;45.472;-122.822;2023-08-31T11:58:32;17.40;99.90
6375;DHT22;35400;45.472;-122.822;2023-08-31T12:00:59;17.30;99.90
6375;DHT22;35400;45.472;-122.822;2023-08-31T12:03:27;17.30;99.90
6375;DHT22;35400;45.472;-122.822;2023-08-31T12:05:55;17.30;99.90
6375;DHT22;35400;45.472;-122.822;2023-08-31T12:08:27;17.30;99.90
6375;DHT22;35400;45.472;-122.822;2023-08-31T12:10:54;17.30;99.90
6375;DHT22;35400;45.472;-122.822;2023-08-31T12:13:26;17.30;99.90
6375;DHT22;35400;45.472;-122.822;2023-08-31T12:15:55;17.30;99.90
6375;DHT22;35400;45.472;-122.822;2023-08-31T12:18:22;17.30;99.90
6375;DHT22;35400;45.472;-122.822;2023-08-31T12:20:51;17.30;99.90
6375;DHT22;35400;45.472;-122.822;2023-08-31T12:23:19;17.20;99.90
6375;DHT22;35400;45.472;-122.822;2023-08-31T12:25:53;17.20;99.90
6375;DHT22;35400;45.472;-122.822;2023-08-31T12:28:22;17.20;99.90
6375;DHT22;35400;45.472;-122.822;2023-08-31T12:30:51;17.20;99.90
6375;DHT22;35400;45.472;-122.822;2023-08-31T12:33:19;17.20;99.90
6375;DHT22;35400;45.472;-122.822;2023-08-31T12:35:46;17.20;99.90
6375;DHT22;35400;45.472;-122.822;2023-08-31T12:38:13;17.20;99.90
6375;DHT22;35400;45.472;-122.822;2023-08-31T12:40:40;17.10;99.90
6375;DHT22;35400;45.472;-122.822;2023-08-31T12:43:07;17.20;99.90
6375;DHT22;35400;45.472;-122.822;2023-08-31T12:45:36;17.10;99.90
6375;DHT22;35400;45.472;-122.822;2023-08-31T12:48:03;17.10;99.90
6375;DHT22;35400;45.472;-122.822;2023-08-31T12:50:30;17.10;99.90
6375;DHT22;35400;45.472;-122.822;2023-08-31T12:52:57;17.10;99.90
6375;DHT22;35400;45.472;-122.822;2023-08-31T12:55:25;17.10;99.90
6375;DHT22;35400;45.472;-122.822;2023-08-31T12:57:52;17.10;99.90
6375;DHT22;35400;45.472;-122.822;2023-08-31T13:00:19;17.10;99.90
6375;DHT22;35400;45.472;-122.822;2023-08-31T13:02:45;17.10;99.90
6375;DHT22;35400;45.472;-122.822;2023-08-31T13:05:13;17.10;99.90
6375;DHT22;35400;45.472;-122.822;2023-08-31T13:07:39;17.00;99.90
6375;DHT22;35400;45.472;-122.822;2023-08-31T13:10:07;17.10;99.90
6375;DHT22;35400;45.472;-122.822;2023-08-31T13:12:34;17.00;99.90
6375;DHT22;35400;45.472;-122.822;2023-08-31T13:15:01;17.00;99.90
6375;DHT22;35400;45.472;-122.822;2023-08-31T13:17:28;17.00;99.90
6375;DHT22;35400;45.472;-122.822;2023-08-31T13:19:56;17.00;99.90
6375;DHT22;35400;45.472;-122.822;2023-08-31T13:22:24;16.90;99.90
6375;DHT22;35400;45.472;-122.822;2023-08-31T13:24:51;17.00;99.90
6375;DHT22;35400;45.472;-122.822;2023-08-31T13:27:19;16.90;99.90
6375;DHT22;35400;45.472;-122.822;2023-08-31T13:29:45;17.00;99.90
6375;DHT22;35400;45.472;-122.822;2023-08-31T13:32:12;17.00;99.90
6375;DHT22;35400;45.472;-122.822;2023-08-31T13:34:39;17.00;99.90
6375;DHT22;35400;45.472;-122.822;2023-08-31T13:37:06;17.00;99.90
6375;DHT22;35400;45.472;-122.822;2023-08-31T13:39:36;16.90;99.90
6375;DHT22;35400;45.472;-122.822;2023-08-31T13:42:03;17.00;99.90
6375;DHT22;35400;45.472;-122.822;2023-08-31T13:44:33;17.00;99.90
6375;DHT22;35400;45.472;-122.822;2023-08-31T13:47:00;16.90;99.90
6375;DHT22;35400;45.472;-122.822;2023-08-31T13:49:29;16.90;99.90
6375;DHT22;35400;45.472;-122.822;2023-08-31T13:51:56;16.90;99.90
6375;DHT22;35400;45.472;-122.822;2023-08-31T13:54:23;16.90;99.90
6375;DHT22;35400;45.472;-122.822;2023-08-31T13:56:51;16.90;99.90
6375;DHT22;35400;45.472;-122.822;2023-08-31T13:59:18;16.90;99.90
6375;DHT22;35400;45.472;-122.822;2023-08-31T14:01:45;16.90;99.90
6375;DHT22;35400;45.472;-122.822;2023-08-31T14:04:12;16.90;99.90
6375;DHT22;35400;45.472;-122.822;2023-08-31T14:06:39;16.90;99.90
6375;DHT22;35400;45.472;-122.822;2023-08-31T14:09:06;16.90;99.90
6375;DHT22;35400;45.472;-122.822;2023-08-31T14:11:34;16.90;99.90
6375;DHT22;35400;45.472;-122.822;2023-08-31T14:14:06;17.00;99.90
6375;DHT22;35400;45.472;-122.822;2023-08-31T14:16:37;16.90;99.90
6375;DHT22;35400;45.472;-122.822;2023-08-31T14:19:04;17.00;99.90
6375;DHT22;35400;45.472;-122.822;2023-08-31T14:21:32;17.00;99.90
6375;DHT22;35400;45.472;-122.822;2023-08-31T14:23:59;16.90;99.90
6375;DHT22;35400;45.472;-122.822;2023-08-31T14:26:26;17.00;99.90
6375;DHT22;35400;45.472;-122.822;2023-08-31T14:28:53;17.00;99.90
6375;DHT22;35400;45.472;-122.822;2023-08-31T14:31:20;17.00;99.90
6375;DHT22;35400;45.472;-122.822;2023-08-31T14:33:46;17.00;99.90
6375;DHT22;35400;45.472;-122.822;2023-08-31T14:36:14;17.00;99.90
6375;DHT22;35400;45.472;-122.822;2023-08-31T14:38:42;17.00;99.90
6375;DHT22;35400;45.472;-122.822;2023-08-31T14:41:09;17.00;99.90
6375;DHT22;35400;45.472;-122.822;2023-08-31T14:43:35;17.10;99.90
6375;DHT22;35400;45.472;-122.822;2023-08-31T14:46:02;17.00;99.90
6375;DHT22;35400;45.472;-122.822;2023-08-31T14:48:31;17.00;99.90
6375;DHT22;35400;45.472;-122.822;2023-08-31T14:50:58;17.10;99.90
6375;DHT22;35400;45.472;-122.822;2023-08-31T14:53:26;17.00;99.90
6375;DHT22;35400;45.472;-122.822;2023-08-31T14:55:54;17.00;99.90
6375;DHT22;35400;45.472;-122.822;2023-08-31T14:58:20;17.00;99.90
6375;DHT22;35400;45.472;-122.822;2023-08-31T15:00:47;17.00;99.90
6375;DHT22;35400;45.472;-122.822;2023-08-31T15:03:14;17.00;99.90
6375;DHT22;35400;45.472;-122.822;2023-08-31T15:05:42;17.00;99.90
6375;DHT22;35400;45.472;-122.822;2023-08-31T15:08:09;17.00;99.90
6375;DHT22;35400;45.472;-122.822;2023-08-31T15:10:38;17.00;99.90
6375;DHT22;35400;45.472;-122.822;2023-08-31T15:13:06;17.00;99.90
6375;DHT22;35400;45.472;-122.822;2023-08-31T15:15:32;17.00;99.90
6375;DHT22;35400;45.472;-122.822;2023-08-31T15:18:00;17.00;99.90
6375;DHT22;35400;45.472;-122.822;2023-08-31T15:20:27;17.00;99.90
6375;DHT22;35400;45.472;-122.822;2023-08-31T15:22:54;17.00;99.90
6375;DHT22;35400;45.472;-122.822;2023-08-31T15:25:21;17.00;99.90
6375;DHT22;35400;45.472;-122.822;2023-08-31T15:27:48;17.00;99.90
6375;DHT22;35400;45.472;-122.822;2023-08-31T15:30:15;17.00;99.90
6375;DHT22;35400;45.472;-122.822;2023-08-31T15:32:42;16.90;99.90
6375;DHT22;35400;45.472;-122.822;2023-08-31T15:35:09;16.90;99.90
6375;DHT22;35400;45.472;-122.822;2023-08-31T15:37:36;16.90;99.90